createdAt,value
2019-01-12T00:00:36.541Z,33.38
2019-01-12T00:03:05.436Z,31.95
2019-01-12T00:05:34.544Z,30.97
2019-01-12T00:08:03.427Z,32.10
2019-01-12T00:10:32.425Z,32.30
2019-01-12T00:13:01.451Z,34.33
2019-01-12T00:15:30.500Z,35.17
2019-01-12T00:17:59.688Z,31.95
2019-01-12T00:20:28.724Z,30.32
2019-01-12T00:22:57.714Z,29.75
2019-01-12T00:25:26.848Z,28.75
2019-01-12T00:27:55.908Z,31.30
2019-01-12T00:30:24.881Z,30.35
2019-01-12T00:32:53.882Z,30.23
2019-01-12T00:35:22.832Z,30.75
2019-01-12T00:37:52.008Z,31.70
2019-01-12T00:40:21.092Z,31.27
2019-01-12T00:42:50.004Z,29.80
2019-01-12T00:45:18.924Z,30.90
2019-01-12T00:47:47.924Z,31.17
2019-01-12T00:50:18.637Z,35.23
2019-01-12T00:52:47.613Z,30.97
2019-01-12T00:55:16.664Z,29.67
2019-01-12T00:57:45.624Z,30.72
2019-01-12T01:00:19.504Z,31.10
2019-01-12T01:02:48.559Z,30.90
2019-01-12T01:05:17.568Z,29.60
2019-01-12T01:07:46.563Z,30.17
2019-01-12T01:10:20.292Z,29.72
2019-01-12T01:12:49.312Z,31.17
2019-01-12T01:15:18.397Z,29.02
2019-01-12T01:17:47.412Z,30.68
2019-01-12T01:20:16.851Z,29.25
2019-01-12T01:22:45.840Z,30.25
2019-01-12T01:25:14.916Z,29.95
2019-01-12T01:28:03.052Z,29.35
2019-01-12T01:30:32.088Z,29.87
2019-01-12T01:33:01.161Z,32.05
2019-01-12T01:35:30.106Z,34.55
2019-01-12T01:37:59.080Z,29.18
2019-01-12T01:40:28.073Z,29.52
2019-01-12T01:42:57.036Z,29.85
2019-01-12T01:45:26.020Z,28.42
2019-01-12T01:47:55.093Z,29.37
2019-01-12T01:50:24.123Z,28.35
2019-01-12T01:52:53.103Z,30.57
2019-01-12T01:55:22.184Z,29.70
2019-01-12T01:57:51.945Z,29.27
2019-01-12T02:00:21.021Z,25.05
2019-01-12T02:02:50.013Z,28.65
2019-01-12T02:05:18.979Z,25.85
2019-01-12T02:07:47.871Z,25.37
2019-01-12T02:10:22.157Z,26.70
2019-01-12T02:12:51.183Z,27.00
2019-01-12T02:15:21.012Z,25.62
2019-01-12T02:17:50.165Z,27.70
2019-01-12T02:20:19.127Z,25.45
2019-01-12T02:22:48.005Z,28.17
2019-01-12T02:25:16.945Z,27.10
2019-01-12T02:27:45.760Z,26.20
2019-01-12T02:30:20.565Z,26.87
2019-01-12T02:32:49.517Z,27.22
2019-01-12T02:35:18.526Z,26.87
2019-01-12T02:37:47.566Z,26.05
2019-01-12T02:40:16.645Z,27.70
2019-01-12T02:42:45.592Z,26.65
2019-01-12T02:45:14.517Z,27.40
2019-01-12T02:47:43.413Z,27.67
2019-01-12T02:50:12.857Z,27.00
2019-01-12T02:52:41.905Z,25.95
2019-01-12T02:55:10.945Z,25.70
2019-01-12T02:57:39.981Z,25.35
2019-01-12T03:00:12.524Z,26.57
2019-01-12T03:02:41.485Z,28.43
2019-01-12T03:05:10.527Z,26.52
2019-01-12T03:07:39.486Z,25.00
2019-01-12T03:10:09.695Z,25.48
2019-01-12T03:12:38.660Z,26.27
2019-01-12T03:15:09.353Z,26.25
2019-01-12T03:17:38.252Z,26.50
2019-01-12T03:20:10.266Z,25.20
2019-01-12T03:22:39.158Z,25.57
2019-01-12T03:25:08.212Z,27.02
2019-01-12T03:27:37.118Z,27.48
2019-01-12T03:30:10.831Z,28.15
2019-01-12T03:32:39.639Z,25.95
2019-01-12T03:35:08.651Z,26.93
2019-01-12T03:37:37.652Z,28.15
2019-01-12T03:40:08.572Z,27.22
2019-01-12T03:42:37.450Z,28.17
2019-01-12T03:45:08.061Z,28.55
2019-01-12T03:47:37.030Z,28.57
2019-01-12T03:50:07.660Z,30.82
2019-01-12T03:52:36.683Z,28.62
2019-01-12T03:55:05.792Z,28.07
2019-01-12T03:57:34.769Z,27.82
2019-01-12T04:00:05.025Z,28.42
2019-01-12T04:02:33.921Z,31.80
2019-01-12T04:05:02.902Z,28.98
2019-01-12T04:07:31.952Z,28.20
2019-01-12T04:10:00.838Z,28.47
2019-01-12T04:12:29.732Z,27.20
2019-01-12T04:14:58.710Z,27.52
2019-01-12T04:17:27.762Z,27.85
2019-01-12T04:19:56.725Z,28.70
2019-01-12T04:22:25.646Z,30.32
2019-01-12T04:24:54.620Z,29.40
2019-01-12T04:27:23.689Z,27.05
2019-01-12T04:29:52.738Z,26.10
2019-01-12T04:32:21.769Z,26.57
2019-01-12T04:34:50.806Z,27.85
2019-01-12T04:37:19.728Z,25.80
2019-01-12T04:39:48.749Z,25.15
2019-01-12T04:42:17.765Z,25.30
2019-01-12T04:44:46.742Z,25.48
2019-01-12T04:47:15.778Z,25.72
2019-01-12T04:49:44.656Z,24.80
2019-01-12T04:52:13.686Z,27.90
2019-01-12T04:54:42.637Z,26.45
2019-01-12T04:57:11.676Z,25.90
2019-01-12T04:59:40.688Z,26.00
2019-01-12T05:02:09.585Z,26.27
2019-01-12T05:04:38.481Z,25.23
2019-01-12T05:07:07.487Z,26.40
2019-01-12T05:09:36.438Z,27.25
2019-01-12T05:12:05.365Z,25.75
2019-01-12T05:14:34.328Z,26.48
2019-01-12T05:17:03.326Z,26.23
2019-01-12T05:19:32.216Z,25.43
2019-01-12T05:22:01.291Z,25.10
2019-01-12T05:24:30.338Z,25.52
2019-01-12T05:26:59.316Z,24.77
2019-01-12T05:29:28.344Z,25.60
2019-01-12T05:31:57.365Z,25.12
2019-01-12T05:34:26.349Z,25.32
2019-01-12T05:36:55.287Z,24.80
2019-01-12T05:39:24.232Z,24.80
2019-01-12T05:41:53.633Z,25.05
2019-01-12T05:44:22.600Z,24.40
2019-01-12T05:46:51.724Z,25.12
2019-01-12T05:49:20.763Z,26.25
2019-01-12T05:51:49.671Z,24.75
2019-01-12T05:54:18.639Z,24.70
2019-01-12T05:56:47.616Z,25.43
2019-01-12T05:59:16.577Z,25.60
2019-01-12T06:01:45.758Z,26.30
2019-01-12T06:04:14.739Z,26.70
2019-01-12T06:06:43.645Z,29.70
2019-01-12T06:09:12.756Z,26.35
2019-01-12T06:11:41.744Z,25.97
2019-01-12T06:14:10.720Z,26.65
2019-01-12T06:16:39.628Z,30.35
2019-01-12T06:19:08.525Z,27.10
2019-01-12T06:21:37.556Z,27.13
2019-01-12T06:24:06.509Z,24.40
2019-01-12T06:26:35.501Z,26.35
2019-01-12T06:29:04.545Z,27.90
2019-01-12T06:31:33.470Z,26.48
2019-01-12T06:34:02.365Z,26.35
2019-01-12T06:36:31.249Z,29.32
2019-01-12T06:39:00.284Z,26.15
2019-01-12T06:41:29.233Z,26.17
2019-01-12T06:43:58.239Z,30.55
2019-01-12T06:46:27.312Z,25.10
2019-01-12T06:48:56.237Z,25.48
2019-01-12T06:51:25.124Z,24.40
2019-01-12T06:53:54.117Z,26.42
2019-01-12T06:56:23.079Z,25.55
2019-01-12T06:58:52.145Z,26.95
2019-01-12T07:01:21.123Z,25.90
2019-01-12T07:03:50.263Z,27.90
2019-01-12T07:06:19.310Z,25.80
2019-01-12T07:08:48.305Z,27.30
2019-01-12T07:11:17.264Z,25.30
2019-01-12T07:13:46.290Z,27.58
2019-01-12T07:16:15.422Z,25.75
2019-01-12T07:18:44.469Z,25.57
2019-01-12T07:21:13.453Z,28.17
2019-01-12T07:23:43.532Z,27.05
2019-01-12T07:26:17.558Z,25.48
2019-01-12T07:28:43.153Z,25.92
2019-01-12T07:31:12.123Z,26.52
2019-01-12T07:33:41.135Z,26.25
2019-01-12T07:36:10.097Z,26.37
2019-01-12T07:38:39.149Z,25.75
2019-01-12T07:41:08.221Z,24.67
2019-01-12T07:43:37.214Z,24.23
2019-01-12T07:46:06.266Z,26.80
2019-01-12T07:48:35.286Z,25.30
2019-01-12T07:51:04.152Z,25.57
2019-01-12T07:53:33.241Z,26.00
2019-01-12T07:56:02.280Z,24.23
2019-01-12T07:58:31.451Z,25.60
2019-01-12T08:01:00.405Z,26.57
2019-01-12T08:03:29.460Z,25.50
2019-01-12T08:05:58.517Z,27.58
2019-01-12T08:08:27.528Z,25.25
2019-01-12T08:10:56.573Z,29.97
2019-01-12T08:13:25.570Z,25.97
2019-01-12T08:15:54.524Z,24.98
2019-01-12T08:18:23.548Z,26.42
2019-01-12T08:20:52.596Z,29.52
2019-01-12T08:23:21.588Z,27.52
2019-01-12T08:25:50.627Z,25.70
2019-01-12T08:28:19.593Z,27.98
2019-01-12T08:30:48.641Z,26.52
2019-01-12T08:33:17.680Z,27.17
2019-01-12T08:35:46.661Z,26.20
2019-01-12T08:38:15.745Z,27.27
2019-01-12T08:40:44.776Z,27.65
2019-01-12T08:43:13.837Z,25.90
2019-01-12T08:45:42.934Z,29.67
2019-01-12T08:48:12.077Z,26.65
2019-01-12T08:50:41.117Z,27.47
2019-01-12T08:53:10.090Z,29.87
2019-01-12T08:55:39.255Z,27.25
2019-01-12T08:58:08.230Z,28.30
2019-01-12T09:00:37.292Z,25.73
2019-01-12T09:03:06.252Z,26.87
2019-01-12T09:05:35.347Z,25.83
2019-01-12T09:08:04.464Z,25.60
2019-01-12T09:10:33.553Z,27.70
2019-01-12T09:13:02.533Z,27.62
2019-01-12T09:15:31.672Z,31.80
2019-01-12T09:18:00.696Z,29.30
2019-01-12T09:20:29.712Z,30.63
2019-01-12T09:22:58.714Z,25.97
2019-01-12T09:25:27.701Z,25.90
2019-01-12T09:28:15.979Z,28.02
2019-01-12T09:31:04.257Z,25.55
2019-01-12T09:33:52.482Z,25.17
2019-01-12T09:36:40.610Z,25.02
2019-01-12T09:39:21.586Z,33.48
2019-01-12T09:42:02.934Z,24.55
2019-01-12T09:44:43.544Z,24.55
2019-01-12T09:47:24.525Z,26.30
2019-01-12T09:50:06.007Z,26.27
2019-01-12T09:52:46.515Z,24.30
2019-01-12T09:55:27.237Z,24.30
2019-01-12T09:58:07.626Z,26.80
2019-01-12T10:00:48.558Z,25.50
2019-01-12T10:03:29.550Z,27.53
2019-01-12T10:06:10.903Z,26.80
2019-01-12T10:08:51.833Z,25.00
2019-01-12T10:11:32.322Z,25.60
2019-01-12T10:14:13.577Z,25.70
2019-01-12T10:16:54.889Z,27.32
2019-01-12T10:19:35.388Z,25.10
2019-01-12T10:22:16.159Z,26.20
2019-01-12T10:24:57.321Z,24.30
2019-01-12T10:27:38.337Z,27.48
2019-01-12T10:30:19.122Z,31.52
2019-01-12T10:33:00.389Z,27.40
2019-01-12T10:35:41.252Z,27.77
2019-01-12T10:38:21.766Z,29.87
2019-01-12T10:41:02.328Z,25.00
2019-01-12T10:43:43.666Z,24.93
2019-01-12T10:46:22.986Z,27.13
2019-01-12T10:49:11.281Z,24.53
2019-01-12T10:51:59.408Z,25.33
2019-01-12T10:54:47.587Z,26.47
2019-01-12T11:03:37.452Z,25.20
2019-01-12T11:06:18.102Z,28.40
2019-01-12T11:08:58.728Z,25.03
2019-01-12T11:11:39.552Z,27.00
2019-01-12T11:14:20.049Z,23.37
2019-01-12T11:17:00.468Z,25.13
2019-01-12T11:19:41.556Z,26.97
2019-01-12T11:22:22.057Z,26.33
2019-01-12T11:25:01.494Z,24.90
2019-01-12T11:27:49.622Z,26.15
2019-01-12T11:30:37.829Z,27.60
2019-01-12T11:33:25.964Z,27.83
2019-01-12T11:36:14.175Z,25.67
2019-01-12T11:44:50.856Z,26.63
2019-01-12T11:50:46.409Z,26.75
2019-01-12T11:53:34.576Z,25.20
2019-01-12T11:56:22.809Z,27.75
2019-01-12T12:02:11.069Z,26.53
2019-01-12T12:04:51.720Z,25.77
2019-01-12T12:07:33.060Z,26.90
2019-01-12T12:10:14.493Z,25.43
2019-01-12T12:12:55.723Z,26.97
2019-01-12T12:15:36.568Z,26.13
2019-01-12T12:18:17.342Z,29.98
2019-01-12T12:20:58.701Z,26.80
2019-01-12T12:23:39.240Z,26.42
2019-01-12T12:26:20.678Z,27.00
2019-01-12T12:29:01.929Z,27.85
2019-01-12T12:31:43.153Z,28.93
2019-01-12T12:34:23.509Z,28.20
2019-01-12T12:37:04.185Z,29.93
2019-01-12T12:39:45.667Z,27.03
2019-01-12T12:42:26.609Z,26.67
2019-01-12T12:45:07.957Z,25.17
2019-01-12T12:47:48.606Z,27.40
2019-01-12T12:50:29.837Z,30.13
2019-01-12T12:53:10.278Z,30.80
2019-01-12T12:55:51.469Z,30.57
2019-01-12T12:58:32.049Z,27.67
2019-01-12T13:01:12.803Z,26.97
2019-01-12T13:03:53.501Z,27.37
2019-01-12T13:06:34.814Z,26.73
2019-01-12T13:09:16.047Z,29.47
2019-01-12T13:11:56.826Z,28.73
2019-01-12T13:14:38.027Z,28.83
2019-01-12T13:17:18.625Z,26.97
2019-01-12T13:19:59.165Z,32.67
2019-01-12T13:22:40.070Z,29.63
2019-01-12T13:25:20.726Z,31.40
2019-01-12T13:31:02.752Z,28.93
2019-01-12T13:33:50.989Z,31.13
2019-01-12T13:36:39.189Z,31.62
2019-01-12T13:42:34.844Z,31.95
2019-01-12T13:48:30.446Z,30.40
2019-01-12T13:51:18.585Z,28.73
2019-01-12T13:54:06.767Z,31.70
2019-01-12T13:56:54.931Z,27.95
2019-01-12T14:14:12.131Z,29.75
2019-01-12T14:20:00.286Z,34.27
2019-01-12T14:22:40.938Z,29.65
2019-01-12T14:25:22.245Z,28.07
2019-01-12T14:28:02.836Z,28.90
2019-01-12T14:30:44.436Z,29.52
2019-01-12T14:33:25.374Z,30.27
2019-01-12T14:36:06.680Z,29.40
2019-01-12T14:38:47.153Z,29.90
2019-01-12T14:41:27.800Z,30.17
2019-01-12T14:44:09.018Z,31.87
2019-01-12T14:46:49.605Z,29.33
2019-01-12T14:49:30.109Z,30.90
2019-01-12T14:52:10.810Z,25.13
2019-01-12T14:54:51.612Z,27.45
2019-01-12T14:57:32.968Z,27.37
2019-01-12T15:00:13.469Z,27.45
2019-01-12T15:02:54.698Z,26.03
2019-01-12T15:05:36.143Z,27.35
2019-01-12T15:08:16.920Z,29.83
2019-01-12T15:10:57.524Z,27.15
2019-01-12T15:13:38.016Z,25.30
2019-01-12T15:16:17.367Z,28.10
2019-01-12T15:19:05.532Z,26.52
2019-01-12T15:24:48.021Z,27.90
2019-01-12T15:27:17.314Z,24.80
2019-01-12T15:29:46.368Z,29.40
2019-01-12T15:32:15.475Z,27.10
2019-01-12T15:34:44.445Z,26.30
2019-01-12T15:37:13.384Z,27.80
2019-01-12T15:39:42.446Z,29.43
2019-01-12T15:42:11.512Z,28.10
2019-01-12T15:44:40.690Z,27.47
2019-01-12T15:47:09.722Z,26.37
2019-01-12T15:49:38.717Z,27.90
2019-01-12T15:52:07.830Z,33.05
2019-01-12T15:54:36.946Z,29.90
2019-01-12T15:57:05.994Z,29.23
2019-01-12T15:59:35.086Z,28.03
2019-01-12T16:02:04.162Z,27.83
2019-01-12T16:04:33.149Z,27.90
2019-01-12T16:07:02.289Z,27.57
2019-01-12T16:09:31.405Z,27.40
2019-01-12T16:12:00.463Z,27.90
2019-01-12T16:14:29.457Z,26.97
2019-01-12T16:16:58.436Z,24.30
2019-01-12T16:19:27.410Z,26.00
2019-01-12T16:21:56.536Z,25.57
2019-01-12T16:24:25.658Z,24.85
2019-01-12T16:26:54.729Z,25.60
2019-01-12T16:29:23.861Z,25.80
2019-01-12T16:31:52.908Z,25.17
2019-01-12T16:34:22.061Z,25.40
2019-01-12T16:36:52.240Z,26.53
2019-01-12T16:39:21.263Z,26.27
2019-01-12T16:41:50.400Z,24.27
2019-01-12T16:44:19.541Z,25.60
2019-01-12T16:46:48.570Z,26.13
2019-01-12T16:49:17.654Z,27.27
2019-01-12T16:51:46.793Z,25.43
2019-01-12T16:54:15.873Z,25.70
2019-01-12T16:56:44.944Z,25.85
2019-01-12T16:59:14.043Z,27.03
2019-01-12T17:01:43.161Z,25.03
2019-01-12T17:04:12.275Z,25.20
2019-01-12T17:06:41.345Z,28.00
2019-01-12T17:09:10.509Z,27.30
2019-01-12T17:11:39.506Z,25.03
2019-01-12T17:14:08.595Z,32.60
2019-01-12T17:16:37.696Z,26.00
2019-01-12T17:22:01.494Z,25.70
2019-01-12T17:24:30.676Z,27.80
2019-01-12T17:26:59.756Z,25.87
2019-01-12T17:29:28.713Z,26.43
2019-01-12T17:31:57.805Z,26.33
2019-01-12T17:34:26.849Z,24.63
2019-01-12T17:36:58.876Z,25.30
2019-01-12T17:39:26.753Z,26.82
2019-01-12T17:41:57.221Z,27.80
2019-01-12T17:44:26.353Z,27.17
2019-01-12T17:46:55.373Z,28.20
2019-01-12T17:49:24.293Z,28.80
2019-01-12T17:51:53.267Z,29.48
2019-01-12T17:54:22.409Z,27.77
2019-01-12T17:56:51.478Z,29.12
2019-01-12T17:59:20.468Z,28.10
2019-01-12T18:01:49.617Z,29.70
2019-01-12T18:04:18.609Z,30.77
2019-01-12T18:06:47.967Z,25.77
2019-01-12T18:09:17.156Z,24.77
2019-01-12T18:11:46.385Z,28.10
2019-01-12T18:14:15.470Z,26.40
2019-01-12T18:16:44.514Z,27.35
2019-01-12T18:19:13.742Z,28.52
2019-01-12T18:21:42.821Z,33.92
2019-01-12T18:24:11.972Z,24.37
2019-01-12T18:26:40.974Z,23.80
2019-01-12T18:29:10.064Z,26.45
2019-01-12T18:31:39.124Z,27.65
2019-01-12T18:34:08.254Z,25.65
2019-01-12T18:36:37.255Z,25.75
2019-01-12T18:39:07.466Z,26.35
2019-01-12T18:41:36.517Z,25.68
2019-01-12T18:44:05.525Z,24.50
2019-01-12T18:46:34.670Z,25.50
2019-01-12T18:49:03.780Z,26.30
2019-01-12T18:51:32.872Z,23.83
2019-01-12T18:54:02.108Z,27.62
2019-01-12T18:56:31.433Z,28.62
2019-01-12T18:59:00.430Z,24.15
2019-01-12T19:01:29.502Z,24.87
2019-01-12T19:03:58.537Z,23.75
2019-01-12T19:06:27.590Z,28.02
2019-01-12T19:08:56.681Z,25.88
2019-01-12T19:11:25.845Z,27.05
2019-01-12T19:13:54.969Z,26.33
2019-01-12T19:16:23.984Z,24.45
2019-01-12T19:18:52.954Z,26.68
2019-01-12T19:21:22.008Z,25.12
2019-01-12T19:23:51.060Z,24.70
2019-01-12T19:26:20.169Z,25.32
2019-01-12T19:28:49.215Z,23.40
2019-01-12T19:31:18.337Z,25.23
2019-01-12T19:33:49.878Z,25.90
2019-01-12T19:36:19.088Z,24.37
2019-01-12T19:38:48.180Z,25.30
2019-01-12T19:41:17.398Z,23.90
2019-01-12T19:43:46.389Z,24.20
2019-01-12T19:46:15.488Z,23.98
2019-01-12T19:48:44.590Z,23.95
2019-01-12T19:51:13.594Z,23.73
2019-01-12T19:53:42.605Z,24.10
2019-01-12T19:56:11.717Z,24.63
2019-01-12T19:58:40.686Z,23.55
2019-01-12T20:01:09.740Z,23.65
2019-01-12T20:03:38.844Z,23.20
2019-01-12T20:06:07.880Z,23.45
2019-01-12T20:08:36.975Z,23.75
2019-01-12T20:11:06.015Z,24.10
2019-01-12T20:13:35.136Z,22.70
2019-01-12T20:16:10.243Z,23.77
2019-01-12T20:18:39.346Z,25.12
2019-01-12T20:21:08.422Z,25.12
2019-01-12T20:23:37.507Z,22.73
2019-01-12T20:26:06.636Z,23.38
2019-01-12T20:28:35.772Z,23.75
2019-01-12T20:31:37.510Z,23.25
2019-01-12T20:34:35.671Z,22.75
2019-01-12T20:37:43.194Z,23.15
2019-01-12T20:40:36.520Z,22.85
2019-01-12T20:44:05.289Z,22.90
2019-01-12T20:46:55.063Z,26.27
2019-01-12T20:49:34.841Z,23.80
2019-01-12T20:52:30.714Z,23.02
2019-01-12T20:55:41.771Z,22.62
2019-01-12T20:58:56.137Z,23.10
2019-01-12T21:02:02.361Z,22.82
2019-01-12T21:05:12.970Z,23.45
2019-01-12T21:08:07.289Z,22.98
2019-01-12T21:11:12.991Z,22.52
2019-01-12T21:14:04.203Z,23.20
2019-01-12T21:16:42.643Z,23.45
2019-01-12T21:19:11.705Z,24.05
2019-01-12T21:21:40.818Z,23.52
2019-01-12T21:24:10.076Z,23.95
2019-01-12T21:26:39.117Z,23.38
2019-01-12T21:29:08.123Z,24.70
2019-01-12T21:31:37.101Z,23.00
2019-01-12T21:34:06.372Z,22.60
2019-01-12T21:36:35.561Z,23.57
2019-01-12T21:39:07.803Z,23.98
2019-01-12T21:41:36.869Z,22.85
2019-01-12T21:44:05.969Z,22.75
2019-01-12T21:46:35.025Z,22.43
2019-01-12T21:49:04.124Z,22.50
2019-01-12T21:51:33.191Z,23.05
2019-01-12T21:54:02.332Z,23.00
2019-01-12T21:56:31.580Z,24.02
2019-01-12T21:59:00.566Z,22.80
2019-01-12T22:01:36.099Z,23.25
2019-01-12T22:04:00.382Z,22.87
2019-01-12T22:06:29.292Z,22.90
2019-01-12T22:08:58.524Z,23.10
2019-01-12T22:11:27.543Z,22.97
2019-01-12T22:13:56.784Z,22.35
2019-01-12T22:16:25.834Z,22.67
2019-01-12T22:18:54.979Z,22.82
2019-01-12T22:21:24.060Z,28.57
2019-01-12T22:23:53.137Z,23.30
2019-01-12T22:26:22.233Z,22.07
2019-01-12T22:28:51.573Z,25.25
2019-01-12T22:31:20.677Z,22.55
2019-01-12T22:33:49.725Z,23.20
2019-01-12T22:36:18.807Z,23.38
2019-01-12T22:38:47.961Z,22.37
2019-01-12T22:41:16.978Z,23.50
2019-01-12T22:43:46.162Z,22.73
2019-01-12T22:46:15.272Z,22.25
2019-01-12T22:48:44.369Z,23.00
2019-01-12T22:51:13.248Z,23.10
2019-01-12T22:53:42.369Z,24.02
2019-01-12T22:56:11.331Z,24.43
2019-01-12T22:58:40.413Z,23.80
2019-01-12T23:01:43.030Z,23.35
2019-01-12T23:04:12.433Z,22.53
2019-01-12T23:06:41.464Z,24.10
2019-01-12T23:09:12.109Z,23.15
2019-01-12T23:11:41.165Z,23.00
2019-01-12T23:14:10.162Z,23.57
2019-01-12T23:16:39.198Z,23.13
2019-01-12T23:19:08.265Z,24.15
2019-01-12T23:21:37.248Z,24.33
2019-01-12T23:24:06.616Z,22.90
2019-01-12T23:26:35.565Z,24.15
2019-01-12T23:29:05.049Z,23.35
2019-01-12T23:31:34.130Z,23.07
2019-01-12T23:34:03.269Z,22.53
2019-01-12T23:36:32.329Z,24.20
2019-01-12T23:39:01.313Z,22.75
2019-01-12T23:41:30.252Z,23.30
2019-01-12T23:43:59.317Z,25.27
2019-01-12T23:46:28.288Z,22.70
2019-01-12T23:48:57.473Z,22.75
2019-01-12T23:51:26.638Z,22.52
2019-01-12T23:53:55.697Z,23.05
2019-01-12T23:56:24.764Z,24.82
2019-01-12T23:58:53.867Z,22.45
